sensor_id;sensor_type;location;lat;lon;timestamp;P1;durP1;ratioP1;P2;durP2;ratioP2
15317;SDS011;7759;52.528;13.346;2024-02-15T00:00:39;3.40;;;2.10;;
15317;SDS011;7759;52.528;13.346;2024-02-15T00:03:05;3.13;;;2.40;;
15317;SDS011;7759;52.528;13.346;2024-02-15T00:05:31;2.67;;;2.07;;
15317;SDS011;7759;52.528;13.346;2024-02-15T00:07:59;2.97;;;2.37;;
15317;SDS011;7759;52.528;13.346;2024-02-15T00:10:25;5.57;;;2.20;;
15317;SDS011;7759;52.528;13.346;2024-02-15T00:12:51;3.27;;;2.03;;
15317;SDS011;7759;52.528;13.346;2024-02-15T00:15:17;2.87;;;2.20;;
15317;SDS011;7759;52.528;13.346;2024-02-15T00:17:44;3.13;;;2.10;;
15317;SDS011;7759;52.528;13.346;2024-02-15T00:20:11;3.30;;;2.10;;
15317;SDS011;7759;52.528;13.346;2024-02-15T00:22:37;2.53;;;2.20;;
15317;SDS011;7759;52.528;13.346;2024-02-15T00:25:06;5.40;;;2.37;;
15317;SDS011;7759;52.528;13.346;2024-02-15T00:27:35;2.57;;;2.10;;
15317;SDS011;7759;52.528;13.346;2024-02-15T00:30:02;4.07;;;2.60;;
15317;SDS011;7759;52.528;13.346;2024-02-15T00:32:28;2.30;;;1.90;;
15317;SDS011;7759;52.528;13.346;2024-02-15T00:34:54;2.93;;;2.30;;
15317;SDS011;7759;52.528;13.346;2024-02-15T00:37:20;3.53;;;2.60;;
15317;SDS011;7759;52.528;13.346;2024-02-15T00:39:46;3.80;;;2.90;;
15317;SDS011;7759;52.528;13.346;2024-02-15T00:42:12;2.90;;;2.20;;
15317;SDS011;7759;52.528;13.346;2024-02-15T00:44:38;4.57;;;2.43;;
15317;SDS011;7759;52.528;13.346;2024-02-15T00:47:04;2.90;;;2.60;;
15317;SDS011;7759;52.528;13.346;2024-02-15T00:49:30;2.60;;;2.03;;
15317;SDS011;7759;52.528;13.346;2024-02-15T00:51:57;4.27;;;2.33;;
15317;SDS011;7759;52.528;13.346;2024-02-15T00:54:23;4.73;;;2.60;;
15317;SDS011;7759;52.528;13.346;2024-02-15T00:56:48;3.63;;;2.70;;
15317;SDS011;7759;52.528;13.346;2024-02-15T00:59:14;4.70;;;2.73;;
15317;SDS011;7759;52.528;13.346;2024-02-15T01:01:40;2.40;;;2.20;;
15317;SDS011;7759;52.528;13.346;2024-02-15T01:04:06;3.87;;;2.50;;
15317;SDS011;7759;52.528;13.346;2024-02-15T01:06:32;2.67;;;2.37;;
15317;SDS011;7759;52.528;13.346;2024-02-15T01:08:59;5.23;;;2.30;;
15317;SDS011;7759;52.528;13.346;2024-02-15T01:11:27;4.13;;;2.57;;
15317;SDS011;7759;52.528;13.346;2024-02-15T01:13:53;4.10;;;2.70;;
15317;SDS011;7759;52.528;13.346;2024-02-15T01:16:22;3.43;;;2.63;;
15317;SDS011;7759;52.528;13.346;2024-02-15T01:18:49;4.03;;;2.97;;
15317;SDS011;7759;52.528;13.346;2024-02-15T01:21:15;4.63;;;2.97;;
15317;SDS011;7759;52.528;13.346;2024-02-15T01:23:42;3.27;;;2.67;;
15317;SDS011;7759;52.528;13.346;2024-02-15T01:26:09;5.00;;;3.43;;
15317;SDS011;7759;52.528;13.346;2024-02-15T01:28:37;4.43;;;3.40;;
15317;SDS011;7759;52.528;13.346;2024-02-15T01:31:03;4.00;;;2.77;;
15317;SDS011;7759;52.528;13.346;2024-02-15T01:33:30;4.60;;;2.87;;
15317;SDS011;7759;52.528;13.346;2024-02-15T01:35:56;2.80;;;2.50;;
15317;SDS011;7759;52.528;13.346;2024-02-15T01:38:22;5.30;;;2.73;;
15317;SDS011;7759;52.528;13.346;2024-02-15T01:40:48;3.10;;;2.43;;
15317;SDS011;7759;52.528;13.346;2024-02-15T01:43:14;3.10;;;2.47;;
15317;SDS011;7759;52.528;13.346;2024-02-15T01:45:40;3.77;;;2.80;;
15317;SDS011;7759;52.528;13.346;2024-02-15T01:48:06;4.47;;;3.30;;
15317;SDS011;7759;52.528;13.346;2024-02-15T01:50:32;5.33;;;3.40;;
15317;SDS011;7759;52.528;13.346;2024-02-15T01:53:01;6.17;;;3.10;;
15317;SDS011;7759;52.528;13.346;2024-02-15T01:55:29;4.20;;;2.93;;
15317;SDS011;7759;52.528;13.346;2024-02-15T01:57:55;3.93;;;2.93;;
15317;SDS011;7759;52.528;13.346;2024-02-15T02:00:23;4.73;;;3.67;;
15317;SDS011;7759;52.528;13.346;2024-02-15T02:02:55;3.67;;;2.80;;
15317;SDS011;7759;52.528;13.346;2024-02-15T02:05:26;3.73;;;3.13;;
15317;SDS011;7759;52.528;13.346;2024-02-15T02:07:53;6.43;;;3.33;;
15317;SDS011;7759;52.528;13.346;2024-02-15T02:10:20;5.37;;;2.87;;
15317;SDS011;7759;52.528;13.346;2024-02-15T02:12:50;4.47;;;3.33;;
15317;SDS011;7759;52.528;13.346;2024-02-15T02:15:18;3.97;;;3.13;;
15317;SDS011;7759;52.528;13.346;2024-02-15T02:17:48;4.33;;;3.23;;
15317;SDS011;7759;52.528;13.346;2024-02-15T02:20:16;4.70;;;3.17;;
15317;SDS011;7759;52.528;13.346;2024-02-15T02:22:44;3.53;;;3.10;;
15317;SDS011;7759;52.528;13.346;2024-02-15T02:25:12;5.87;;;4.30;;
15317;SDS011;7759;52.528;13.346;2024-02-15T02:27:39;4.43;;;3.47;;
15317;SDS011;7759;52.528;13.346;2024-02-15T02:30:05;7.23;;;3.77;;
15317;SDS011;7759;52.528;13.346;2024-02-15T02:32:34;4.57;;;3.57;;
15317;SDS011;7759;52.528;13.346;2024-02-15T02:35:01;5.83;;;4.00;;
15317;SDS011;7759;52.528;13.346;2024-02-15T02:37:28;4.80;;;3.87;;
15317;SDS011;7759;52.528;13.346;2024-02-15T02:39:54;5.70;;;3.97;;
15317;SDS011;7759;52.528;13.346;2024-02-15T02:42:20;7.23;;;4.27;;
15317;SDS011;7759;52.528;13.346;2024-02-15T02:44:46;4.97;;;3.50;;
15317;SDS011;7759;52.528;13.346;2024-02-15T02:47:12;4.27;;;3.53;;
15317;SDS011;7759;52.528;13.346;2024-02-15T02:49:38;5.10;;;3.47;;
15317;SDS011;7759;52.528;13.346;2024-02-15T02:52:04;5.00;;;3.90;;
15317;SDS011;7759;52.528;13.346;2024-02-15T02:54:30;4.83;;;4.00;;
15317;SDS011;7759;52.528;13.346;2024-02-15T02:56:56;5.60;;;3.83;;
15317;SDS011;7759;52.528;13.346;2024-02-15T02:59:22;4.77;;;4.10;;
15317;SDS011;7759;52.528;13.346;2024-02-15T03:01:48;6.10;;;4.40;;
15317;SDS011;7759;52.528;13.346;2024-02-15T03:04:17;5.57;;;3.73;;
15317;SDS011;7759;52.528;13.346;2024-02-15T03:06:43;6.10;;;3.93;;
15317;SDS011;7759;52.528;13.346;2024-02-15T03:09:09;6.17;;;3.60;;
15317;SDS011;7759;52.528;13.346;2024-02-15T03:11:35;4.87;;;3.70;;
15317;SDS011;7759;52.528;13.346;2024-02-15T03:14:02;5.47;;;4.07;;
15317;SDS011;7759;52.528;13.346;2024-02-15T03:16:29;4.10;;;3.40;;
15317;SDS011;7759;52.528;13.346;2024-02-15T03:18:55;6.77;;;3.97;;
15317;SDS011;7759;52.528;13.346;2024-02-15T03:21:21;5.10;;;4.03;;
15317;SDS011;7759;52.528;13.346;2024-02-15T03:23:47;5.20;;;4.07;;
15317;SDS011;7759;52.528;13.346;2024-02-15T03:26:13;6.27;;;4.40;;
15317;SDS011;7759;52.528;13.346;2024-02-15T03:28:39;5.90;;;4.07;;
15317;SDS011;7759;52.528;13.346;2024-02-15T03:31:05;5.53;;;3.83;;
15317;SDS011;7759;52.528;13.346;2024-02-15T03:33:30;3.97;;;3.57;;
15317;SDS011;7759;52.528;13.346;2024-02-15T03:35:58;6.07;;;4.17;;
15317;SDS011;7759;52.528;13.346;2024-02-15T03:38:25;5.07;;;3.90;;
15317;SDS011;7759;52.528;13.346;2024-02-15T03:40:51;4.87;;;4.13;;
15317;SDS011;7759;52.528;13.346;2024-02-15T03:43:18;3.90;;;3.30;;
15317;SDS011;7759;52.528;13.346;2024-02-15T03:45:44;4.70;;;3.60;;
15317;SDS011;7759;52.528;13.346;2024-02-15T03:48:10;4.47;;;3.60;;
15317;SDS011;7759;52.528;13.346;2024-02-15T03:50:37;3.43;;;2.90;;
15317;SDS011;7759;52.528;13.346;2024-02-15T03:53:03;5.53;;;3.90;;
15317;SDS011;7759;52.528;13.346;2024-02-15T03:55:29;5.53;;;3.33;;
15317;SDS011;7759;52.528;13.346;2024-02-15T03:57:55;4.53;;;3.23;;
15317;SDS011;7759;52.528;13.346;2024-02-15T04:00:22;5.00;;;4.03;;
15317;SDS011;7759;52.528;13.346;2024-02-15T04:02:49;6.47;;;4.87;;
15317;SDS011;7759;52.528;13.346;2024-02-15T04:05:15;4.97;;;4.20;;
15317;SDS011;7759;52.528;13.346;2024-02-15T04:07:43;5.43;;;3.97;;
15317;SDS011;7759;52.528;13.346;2024-02-15T04:10:09;4.87;;;3.77;;
15317;SDS011;7759;52.528;13.346;2024-02-15T04:12:35;5.00;;;3.70;;
15317;SDS011;7759;52.528;13.346;2024-02-15T04:15:01;5.20;;;3.83;;
15317;SDS011;7759;52.528;13.346;2024-02-15T04:17:32;6.13;;;4.43;;
15317;SDS011;7759;52.528;13.346;2024-02-15T04:19:59;6.57;;;4.03;;
15317;SDS011;7759;52.528;13.346;2024-02-15T04:22:26;5.33;;;4.00;;
15317;SDS011;7759;52.528;13.346;2024-02-15T04:24:52;7.23;;;3.80;;
15317;SDS011;7759;52.528;13.346;2024-02-15T04:27:18;5.20;;;4.03;;
15317;SDS011;7759;52.528;13.346;2024-02-15T04:29:45;4.73;;;4.00;;
15317;SDS011;7759;52.528;13.346;2024-02-15T04:32:11;5.77;;;4.07;;
15317;SDS011;7759;52.528;13.346;2024-02-15T04:34:38;5.80;;;4.23;;
15317;SDS011;7759;52.528;13.346;2024-02-15T04:37:04;5.83;;;4.63;;
15317;SDS011;7759;52.528;13.346;2024-02-15T04:39:33;5.43;;;4.10;;
15317;SDS011;7759;52.528;13.346;2024-02-15T04:42:00;9.17;;;4.30;;
15317;SDS011;7759;52.528;13.346;2024-02-15T04:44:26;5.03;;;3.80;;
15317;SDS011;7759;52.528;13.346;2024-02-15T04:46:53;6.83;;;5.07;;
15317;SDS011;7759;52.528;13.346;2024-02-15T04:49:19;5.40;;;3.40;;
15317;SDS011;7759;52.528;13.346;2024-02-15T04:51:45;10.93;;;7.30;;
15317;SDS011;7759;52.528;13.346;2024-02-15T04:54:12;5.77;;;4.13;;
15317;SDS011;7759;52.528;13.346;2024-02-15T04:56:41;7.17;;;4.27;;
15317;SDS011;7759;52.528;13.346;2024-02-15T04:59:08;5.73;;;4.00;;
15317;SDS011;7759;52.528;13.346;2024-02-15T05:01:36;5.37;;;4.13;;
15317;SDS011;7759;52.528;13.346;2024-02-15T05:04:04;5.97;;;4.20;;
15317;SDS011;7759;52.528;13.346;2024-02-15T05:06:32;5.33;;;4.37;;
15317;SDS011;7759;52.528;13.346;2024-02-15T05:08:58;6.97;;;4.43;;
15317;SDS011;7759;52.528;13.346;2024-02-15T05:11:25;7.60;;;4.90;;
15317;SDS011;7759;52.528;13.346;2024-02-15T05:13:51;5.10;;;4.30;;
15317;SDS011;7759;52.528;13.346;2024-02-15T05:16:17;6.20;;;4.17;;
15317;SDS011;7759;52.528;13.346;2024-02-15T05:18:43;9.17;;;4.67;;
15317;SDS011;7759;52.528;13.346;2024-02-15T05:21:10;6.47;;;4.37;;
15317;SDS011;7759;52.528;13.346;2024-02-15T05:23:36;6.30;;;4.50;;
15317;SDS011;7759;52.528;13.346;2024-02-15T05:26:04;5.70;;;4.13;;
15317;SDS011;7759;52.528;13.346;2024-02-15T05:28:30;6.40;;;4.13;;
15317;SDS011;7759;52.528;13.346;2024-02-15T05:31:12;6.13;;;4.37;;
15317;SDS011;7759;52.528;13.346;2024-02-15T05:33:50;4.50;;;3.10;;
15317;SDS011;7759;52.528;13.346;2024-02-15T05:36:17;5.17;;;3.90;;
15317;SDS011;7759;52.528;13.346;2024-02-15T05:38:46;6.03;;;4.37;;
15317;SDS011;7759;52.528;13.346;2024-02-15T05:41:12;6.23;;;4.43;;
15317;SDS011;7759;52.528;13.346;2024-02-15T05:43:41;5.13;;;3.80;;
15317;SDS011;7759;52.528;13.346;2024-02-15T05:46:07;5.83;;;3.97;;
15317;SDS011;7759;52.528;13.346;2024-02-15T05:48:33;6.73;;;4.27;;
15317;SDS011;7759;52.528;13.346;2024-02-15T05:51:04;5.53;;;3.93;;
15317;SDS011;7759;52.528;13.346;2024-02-15T05:53:31;5.73;;;4.50;;
15317;SDS011;7759;52.528;13.346;2024-02-15T05:56:01;6.03;;;4.00;;
15317;SDS011;7759;52.528;13.346;2024-02-15T05:58:29;5.57;;;4.10;;
15317;SDS011;7759;52.528;13.346;2024-02-15T06:00:54;6.33;;;4.20;;
15317;SDS011;7759;52.528;13.346;2024-02-15T06:03:26;6.27;;;4.30;;
15317;SDS011;7759;52.528;13.346;2024-02-15T06:05:51;5.63;;;3.60;;
15317;SDS011;7759;52.528;13.346;2024-02-15T06:08:22;5.83;;;3.83;;
15317;SDS011;7759;52.528;13.346;2024-02-15T06:10:48;8.57;;;4.90;;
15317;SDS011;7759;52.528;13.346;2024-02-15T06:13:15;5.03;;;3.57;;
15317;SDS011;7759;52.528;13.346;2024-02-15T06:15:41;6.67;;;4.17;;
15317;SDS011;7759;52.528;13.346;2024-02-15T06:18:07;6.20;;;4.10;;
15317;SDS011;7759;52.528;13.346;2024-02-15T06:20:36;4.90;;;3.63;;
15317;SDS011;7759;52.528;13.346;2024-02-15T06:23:04;5.67;;;3.83;;
15317;SDS011;7759;52.528;13.346;2024-02-15T06:25:32;6.60;;;4.00;;
15317;SDS011;7759;52.528;13.346;2024-02-15T06:27:58;5.47;;;3.73;;
15317;SDS011;7759;52.528;13.346;2024-02-15T06:30:37;5.03;;;3.50;;
15317;SDS011;7759;52.528;13.346;2024-02-15T06:33:22;4.33;;;3.37;;
15317;SDS011;7759;52.528;13.346;2024-02-15T06:36:06;4.97;;;3.43;;
15317;SDS011;7759;52.528;13.346;2024-02-15T06:38:51;6.80;;;3.63;;
15317;SDS011;7759;52.528;13.346;2024-02-15T06:41:35;6.20;;;3.97;;
15317;SDS011;7759;52.528;13.346;2024-02-15T06:44:01;6.40;;;4.10;;
15317;SDS011;7759;52.528;13.346;2024-02-15T06:46:27;5.53;;;3.70;;
15317;SDS011;7759;52.528;13.346;2024-02-15T06:48:53;5.43;;;3.67;;
15317;SDS011;7759;52.528;13.346;2024-02-15T06:51:20;5.50;;;4.00;;
15317;SDS011;7759;52.528;13.346;2024-02-15T06:53:46;5.70;;;3.50;;
15317;SDS011;7759;52.528;13.346;2024-02-15T06:56:12;5.43;;;3.83;;
15317;SDS011;7759;52.528;13.346;2024-02-15T06:58:39;5.63;;;3.73;;
15317;SDS011;7759;52.528;13.346;2024-02-15T07:01:07;5.77;;;4.03;;
15317;SDS011;7759;52.528;13.346;2024-02-15T07:03:33;7.40;;;4.60;;
15317;SDS011;7759;52.528;13.346;2024-02-15T07:05:59;6.57;;;3.73;;
15317;SDS011;7759;52.528;13.346;2024-02-15T07:08:25;4.67;;;3.33;;
15317;SDS011;7759;52.528;13.346;2024-02-15T07:10:51;6.50;;;4.30;;
15317;SDS011;7759;52.528;13.346;2024-02-15T07:13:17;5.77;;;4.13;;
15317;SDS011;7759;52.528;13.346;2024-02-15T07:15:44;6.53;;;3.87;;
15317;SDS011;7759;52.528;13.346;2024-02-15T07:18:10;5.23;;;3.73;;
15317;SDS011;7759;52.528;13.346;2024-02-15T07:20:37;4.30;;;3.33;;
15317;SDS011;7759;52.528;13.346;2024-02-15T07:23:05;5.43;;;3.63;;
15317;SDS011;7759;52.528;13.346;2024-02-15T07:25:31;5.60;;;3.47;;
15317;SDS011;7759;52.528;13.346;2024-02-15T07:27:57;4.90;;;3.97;;
15317;SDS011;7759;52.528;13.346;2024-02-15T07:30:23;5.63;;;3.93;;
15317;SDS011;7759;52.528;13.346;2024-02-15T07:32:49;4.57;;;3.63;;
15317;SDS011;7759;52.528;13.346;2024-02-15T07:35:16;5.53;;;3.80;;
15317;SDS011;7759;52.528;13.346;2024-02-15T07:37:52;3.10;;;2.80;;
15317;SDS011;7759;52.528;13.346;2024-02-15T07:40:20;4.90;;;3.50;;
15317;SDS011;7759;52.528;13.346;2024-02-15T07:42:47;6.60;;;3.90;;
15317;SDS011;7759;52.528;13.346;2024-02-15T07:45:13;4.17;;;3.20;;
15317;SDS011;7759;52.528;13.346;2024-02-15T07:47:39;10.70;;;2.80;;
15317;SDS011;7759;52.528;13.346;2024-02-15T07:50:04;5.20;;;3.37;;
15317;SDS011;7759;52.528;13.346;2024-02-15T07:52:34;4.80;;;3.47;;
15317;SDS011;7759;52.528;13.346;2024-02-15T07:55:00;4.07;;;3.43;;
15317;SDS011;7759;52.528;13.346;2024-02-15T07:57:33;3.97;;;3.30;;
15317;SDS011;7759;52.528;13.346;2024-02-15T07:59:59;8.23;;;5.83;;
15317;SDS011;7759;52.528;13.346;2024-02-15T08:02:25;7.50;;;4.37;;
15317;SDS011;7759;52.528;13.346;2024-02-15T08:04:53;3.50;;;2.50;;
15317;SDS011;7759;52.528;13.346;2024-02-15T08:07:19;5.10;;;3.30;;
15317;SDS011;7759;52.528;13.346;2024-02-15T08:09:45;4.93;;;3.27;;
15317;SDS011;7759;52.528;13.346;2024-02-15T08:12:11;5.30;;;3.30;;
15317;SDS011;7759;52.528;13.346;2024-02-15T08:14:37;4.47;;;3.33;;
15317;SDS011;7759;52.528;13.346;2024-02-15T08:17:04;3.87;;;2.87;;
15317;SDS011;7759;52.528;13.346;2024-02-15T08:19:33;5.43;;;3.33;;
15317;SDS011;7759;52.528;13.346;2024-02-15T08:22:04;4.10;;;3.40;;
15317;SDS011;7759;52.528;13.346;2024-02-15T08:24:30;4.67;;;3.13;;
15317;SDS011;7759;52.528;13.346;2024-02-15T08:26:56;6.07;;;4.40;;
15317;SDS011;7759;52.528;13.346;2024-02-15T08:29:24;4.57;;;3.50;;
15317;SDS011;7759;52.528;13.346;2024-02-15T08:31:50;4.50;;;3.40;;
15317;SDS011;7759;52.528;13.346;2024-02-15T08:34:16;6.33;;;3.63;;
15317;SDS011;7759;52.528;13.346;2024-02-15T08:36:43;5.33;;;3.63;;
15317;SDS011;7759;52.528;13.346;2024-02-15T08:39:09;6.70;;;3.40;;
15317;SDS011;7759;52.528;13.346;2024-02-15T08:41:37;4.63;;;3.67;;
15317;SDS011;7759;52.528;13.346;2024-02-15T08:44:03;4.30;;;3.20;;
15317;SDS011;7759;52.528;13.346;2024-02-15T08:46:34;4.40;;;3.27;;
15317;SDS011;7759;52.528;13.346;2024-02-15T08:49:01;4.23;;;3.17;;
15317;SDS011;7759;52.528;13.346;2024-02-15T08:51:28;3.60;;;2.93;;
15317;SDS011;7759;52.528;13.346;2024-02-15T08:53:55;3.50;;;2.83;;
15317;SDS011;7759;52.528;13.346;2024-02-15T08:56:20;4.13;;;2.97;;
15317;SDS011;7759;52.528;13.346;2024-02-15T08:58:48;3.90;;;2.87;;
15317;SDS011;7759;52.528;13.346;2024-02-15T09:01:14;4.53;;;3.47;;
15317;SDS011;7759;52.528;13.346;2024-02-15T09:03:40;5.27;;;3.60;;
15317;SDS011;7759;52.528;13.346;2024-02-15T09:06:06;4.73;;;3.77;;
15317;SDS011;7759;52.528;13.346;2024-02-15T09:08:32;5.00;;;3.70;;
15317;SDS011;7759;52.528;13.346;2024-02-15T09:10:58;5.13;;;3.67;;
15317;SDS011;7759;52.528;13.346;2024-02-15T09:13:24;4.60;;;3.27;;
15317;SDS011;7759;52.528;13.346;2024-02-15T09:15:50;4.90;;;3.23;;
15317;SDS011;7759;52.528;13.346;2024-02-15T09:18:16;4.67;;;3.07;;
15317;SDS011;7759;52.528;13.346;2024-02-15T09:20:47;5.97;;;3.40;;
15317;SDS011;7759;52.528;13.346;2024-02-15T09:23:14;7.03;;;4.20;;
15317;SDS011;7759;52.528;13.346;2024-02-15T09:25:39;5.07;;;3.20;;
15317;SDS011;7759;52.528;13.346;2024-02-15T09:28:08;5.63;;;3.87;;
15317;SDS011;7759;52.528;13.346;2024-02-15T09:30:34;4.60;;;3.50;;
15317;SDS011;7759;52.528;13.346;2024-02-15T09:33:00;4.53;;;3.10;;
15317;SDS011;7759;52.528;13.346;2024-02-15T09:35:30;4.00;;;3.13;;
15317;SDS011;7759;52.528;13.346;2024-02-15T09:37:56;5.07;;;3.13;;
15317;SDS011;7759;52.528;13.346;2024-02-15T09:40:22;4.60;;;3.07;;
15317;SDS011;7759;52.528;13.346;2024-02-15T09:42:51;3.83;;;2.90;;
15317;SDS011;7759;52.528;13.346;2024-02-15T09:45:18;3.77;;;2.93;;
15317;SDS011;7759;52.528;13.346;2024-02-15T09:47:45;5.03;;;3.40;;
15317;SDS011;7759;52.528;13.346;2024-02-15T09:50:15;7.80;;;3.23;;
15317;SDS011;7759;52.528;13.346;2024-02-15T09:52:51;3.97;;;2.83;;
15317;SDS011;7759;52.528;13.346;2024-02-15T09:55:17;4.63;;;3.00;;
15317;SDS011;7759;52.528;13.346;2024-02-15T09:57:44;4.70;;;3.30;;
15317;SDS011;7759;52.528;13.346;2024-02-15T10:00:11;3.50;;;3.20;;
15317;SDS011;7759;52.528;13.346;2024-02-15T10:02:41;13.40;;;8.13;;
15317;SDS011;7759;52.528;13.346;2024-02-15T10:05:09;3.40;;;2.47;;
15317;SDS011;7759;52.528;13.346;2024-02-15T10:07:37;3.10;;;2.57;;
15317;SDS011;7759;52.528;13.346;2024-02-15T10:10:19;3.90;;;2.87;;
15317;SDS011;7759;52.528;13.346;2024-02-15T10:12:47;3.67;;;2.77;;
15317;SDS011;7759;52.528;13.346;2024-02-15T10:17:55;3.20;;;2.50;;
15317;SDS011;7759;52.528;13.346;2024-02-15T10:20:22;3.80;;;2.40;;
15317;SDS011;7759;52.528;13.346;2024-02-15T10:23:12;3.17;;;2.67;;
15317;SDS011;7759;52.528;13.346;2024-02-15T10:25:37;5.03;;;3.30;;
15317;SDS011;7759;52.528;13.346;2024-02-15T10:28:07;2.53;;;2.33;;
15317;SDS011;7759;52.528;13.346;2024-02-15T10:30:39;7.00;;;2.60;;
15317;SDS011;7759;52.528;13.346;2024-02-15T10:33:10;3.97;;;2.60;;
15317;SDS011;7759;52.528;13.346;2024-02-15T10:35:36;2.90;;;2.40;;
15317;SDS011;7759;52.528;13.346;2024-02-15T10:38:09;4.40;;;2.60;;
15317;SDS011;7759;52.528;13.346;2024-02-15T10:40:35;2.93;;;2.40;;
15317;SDS011;7759;52.528;13.346;2024-02-15T10:43:04;3.60;;;2.70;;
15317;SDS011;7759;52.528;13.346;2024-02-15T10:45:31;3.97;;;2.57;;
15317;SDS011;7759;52.528;13.346;2024-02-15T10:47:57;2.93;;;2.00;;
15317;SDS011;7759;52.528;13.346;2024-02-15T10:50:24;3.70;;;2.67;;
15317;SDS011;7759;52.528;13.346;2024-02-15T10:52:53;4.27;;;2.97;;
15317;SDS011;7759;52.528;13.346;2024-02-15T10:55:22;3.87;;;2.57;;
15317;SDS011;7759;52.528;13.346;2024-02-15T10:57:51;3.15;;;2.53;;
15317;SDS011;7759;52.528;13.346;2024-02-15T11:00:18;3.20;;;2.20;;
15317;SDS011;7759;52.528;13.346;2024-02-15T11:02:54;3.17;;;2.30;;
15317;SDS011;7759;52.528;13.346;2024-02-15T11:05:25;3.27;;;2.20;;
15317;SDS011;7759;52.528;13.346;2024-02-15T11:07:51;2.67;;;2.13;;
15317;SDS011;7759;52.528;13.346;2024-02-15T11:10:19;4.80;;;2.70;;
15317;SDS011;7759;52.528;13.346;2024-02-15T11:12:45;2.17;;;1.93;;
15317;SDS011;7759;52.528;13.346;2024-02-15T11:15:12;2.83;;;2.47;;
15317;SDS011;7759;52.528;13.346;2024-02-15T11:17:51;5.00;;;2.30;;
15317;SDS011;7759;52.528;13.346;2024-02-15T11:22:59;2.90;;;1.97;;
15317;SDS011;7759;52.528;13.346;2024-02-15T11:25:38;3.53;;;1.90;;
15317;SDS011;7759;52.528;13.346;2024-02-15T11:30:52;3.33;;;2.00;;
15317;SDS011;7759;52.528;13.346;2024-02-15T11:33:31;2.70;;;1.67;;
15317;SDS011;7759;52.528;13.346;2024-02-15T11:36:03;2.97;;;1.33;;
15317;SDS011;7759;52.528;13.346;2024-02-15T11:38:30;2.93;;;1.87;;
15317;SDS011;7759;52.528;13.346;2024-02-15T11:46:32;1.80;;;1.70;;
15317;SDS011;7759;52.528;13.346;2024-02-15T11:49:00;2.57;;;2.00;;
15317;SDS011;7759;52.528;13.346;2024-02-15T11:51:28;2.83;;;1.90;;
15317;SDS011;7759;52.528;13.346;2024-02-15T11:53:59;4.17;;;2.57;;
15317;SDS011;7759;52.528;13.346;2024-02-15T11:56:25;3.93;;;2.73;;
15317;SDS011;7759;52.528;13.346;2024-02-15T11:59:01;2.63;;;2.10;;
15317;SDS011;7759;52.528;13.346;2024-02-15T12:01:29;2.30;;;2.00;;
15317;SDS011;7759;52.528;13.346;2024-02-15T12:04:15;3.17;;;2.43;;
15317;SDS011;7759;52.528;13.346;2024-02-15T12:06:59;7.23;;;2.20;;
15317;SDS011;7759;52.528;13.346;2024-02-15T12:09:44;3.70;;;2.23;;
15317;SDS011;7759;52.528;13.346;2024-02-15T12:12:28;6.23;;;2.50;;
15317;SDS011;7759;52.528;13.346;2024-02-15T12:15:13;2.47;;;2.20;;
15317;SDS011;7759;52.528;13.346;2024-02-15T12:18:14;2.70;;;2.30;;
15317;SDS011;7759;52.528;13.346;2024-02-15T12:20:59;3.63;;;2.43;;
15317;SDS011;7759;52.528;13.346;2024-02-15T12:23:27;3.80;;;2.30;;
15317;SDS011;7759;52.528;13.346;2024-02-15T12:25:55;2.63;;;2.20;;
15317;SDS011;7759;52.528;13.346;2024-02-15T12:28:21;3.40;;;2.40;;
15317;SDS011;7759;52.528;13.346;2024-02-15T12:30:47;2.97;;;2.67;;
15317;SDS011;7759;52.528;13.346;2024-02-15T12:33:20;3.70;;;2.10;;
15317;SDS011;7759;52.528;13.346;2024-02-15T12:35:46;2.27;;;1.80;;
15317;SDS011;7759;52.528;13.346;2024-02-15T12:38:12;4.50;;;2.80;;
15317;SDS011;7759;52.528;13.346;2024-02-15T12:40:41;3.07;;;2.00;;
15317;SDS011;7759;52.528;13.346;2024-02-15T12:43:07;4.50;;;2.73;;
15317;SDS011;7759;52.528;13.346;2024-02-15T12:45:38;3.17;;;2.43;;
15317;SDS011;7759;52.528;13.346;2024-02-15T12:48:05;3.00;;;2.27;;
15317;SDS011;7759;52.528;13.346;2024-02-15T12:50:31;4.70;;;2.20;;
15317;SDS011;7759;52.528;13.346;2024-02-15T12:52:57;3.93;;;3.10;;
15317;SDS011;7759;52.528;13.346;2024-02-15T12:55:28;5.13;;;1.80;;
15317;SDS011;7759;52.528;13.346;2024-02-15T12:57:59;2.13;;;1.80;;
15317;SDS011;7759;52.528;13.346;2024-02-15T13:00:28;4.03;;;1.90;;
15317;SDS011;7759;52.528;13.346;2024-02-15T13:02:57;1.93;;;1.77;;
15317;SDS011;7759;52.528;13.346;2024-02-15T13:05:25;3.40;;;1.73;;
15317;SDS011;7759;52.528;13.346;2024-02-15T13:07:51;3.67;;;1.58;;
15317;SDS011;7759;52.528;13.346;2024-02-15T13:10:17;2.70;;;1.67;;
15317;SDS011;7759;52.528;13.346;2024-02-15T13:12:44;2.97;;;1.77;;
15317;SDS011;7759;52.528;13.346;2024-02-15T13:15:12;2.13;;;1.80;;
15317;SDS011;7759;52.528;13.346;2024-02-15T13:17:40;2.27;;;1.60;;
15317;SDS011;7759;52.528;13.346;2024-02-15T13:20:06;5.53;;;3.30;;
15317;SDS011;7759;52.528;13.346;2024-02-15T13:22:36;3.10;;;1.87;;
15317;SDS011;7759;52.528;13.346;2024-02-15T13:25:04;2.23;;;1.80;;
15317;SDS011;7759;52.528;13.346;2024-02-15T13:27:32;1.97;;;1.67;;
15317;SDS011;7759;52.528;13.346;2024-02-15T13:29:58;2.60;;;1.90;;
15317;SDS011;7759;52.528;13.346;2024-02-15T13:32:24;2.30;;;1.50;;
15317;SDS011;7759;52.528;13.346;2024-02-15T13:34:50;3.30;;;1.63;;
15317;SDS011;7759;52.528;13.346;2024-02-15T13:37:17;2.33;;;1.57;;
15317;SDS011;7759;52.528;13.346;2024-02-15T13:39:43;1.87;;;1.57;;
15317;SDS011;7759;52.528;13.346;2024-02-15T13:42:10;2.00;;;1.50;;
15317;SDS011;7759;52.528;13.346;2024-02-15T13:44:36;3.45;;;1.85;;
15317;SDS011;7759;52.528;13.346;2024-02-15T13:47:02;7.47;;;4.17;;
15317;SDS011;7759;52.528;13.346;2024-02-15T13:49:30;3.30;;;2.42;;
15317;SDS011;7759;52.528;13.346;2024-02-15T13:51:59;3.72;;;2.72;;
15317;SDS011;7759;52.528;13.346;2024-02-15T13:54:28;4.13;;;1.67;;
15317;SDS011;7759;52.528;13.346;2024-02-15T13:56:57;3.33;;;2.00;;
15317;SDS011;7759;52.528;13.346;2024-02-15T13:59:23;3.37;;;2.10;;
15317;SDS011;7759;52.528;13.346;2024-02-15T14:01:49;4.90;;;2.07;;
15317;SDS011;7759;52.528;13.346;2024-02-15T14:04:15;4.68;;;3.10;;
15317;SDS011;7759;52.528;13.346;2024-02-15T14:06:41;2.17;;;1.83;;
15317;SDS011;7759;52.528;13.346;2024-02-15T14:09:09;2.50;;;1.83;;
15317;SDS011;7759;52.528;13.346;2024-02-15T14:11:36;2.40;;;1.65;;
15317;SDS011;7759;52.528;13.346;2024-02-15T14:14:02;3.47;;;1.70;;
15317;SDS011;7759;52.528;13.346;2024-02-15T14:16:28;3.00;;;1.75;;
15317;SDS011;7759;52.528;13.346;2024-02-15T14:18:54;5.97;;;3.97;;
15317;SDS011;7759;52.528;13.346;2024-02-15T14:21:20;2.90;;;1.90;;
15317;SDS011;7759;52.528;13.346;2024-02-15T14:23:46;3.10;;;2.20;;
15317;SDS011;7759;52.528;13.346;2024-02-15T14:26:12;3.83;;;2.10;;
15317;SDS011;7759;52.528;13.346;2024-02-15T14:28:40;2.38;;;1.50;;
15317;SDS011;7759;52.528;13.346;2024-02-15T14:31:07;3.00;;;2.00;;
15317;SDS011;7759;52.528;13.346;2024-02-15T14:33:52;1.60;;;1.50;;
15317;SDS011;7759;52.528;13.346;2024-02-15T14:36:19;2.43;;;1.83;;
15317;SDS011;7759;52.528;13.346;2024-02-15T14:38:45;6.93;;;2.93;;
15317;SDS011;7759;52.528;13.346;2024-02-15T14:41:11;2.87;;;2.10;;
15317;SDS011;7759;52.528;13.346;2024-02-15T14:43:37;3.63;;;2.40;;
15317;SDS011;7759;52.528;13.346;2024-02-15T14:46:03;4.18;;;2.30;;
15317;SDS011;7759;52.528;13.346;2024-02-15T14:48:35;2.37;;;1.90;;
15317;SDS011;7759;52.528;13.346;2024-02-15T14:51:00;4.57;;;1.80;;
15317;SDS011;7759;52.528;13.346;2024-02-15T14:53:27;2.23;;;1.57;;
15317;SDS011;7759;52.528;13.346;2024-02-15T14:55:53;3.78;;;1.80;;
15317;SDS011;7759;52.528;13.346;2024-02-15T14:58:19;2.17;;;1.80;;
15317;SDS011;7759;52.528;13.346;2024-02-15T15:00:47;3.67;;;2.10;;
15317;SDS011;7759;52.528;13.346;2024-02-15T15:03:13;3.83;;;1.83;;
15317;SDS011;7759;52.528;13.346;2024-02-15T15:05:39;1.93;;;1.73;;